Burrton, Kansas
Current Conditions -  °F | °C
As of 5:52 PM on Wednesday 22 Oct 2014 (Local Time) from KHUT Reporting Station
Overcast Overcast  
Wind Chill: 74°   Ceiling: 9000
Heat Index: 74°   Visibility: 10mi
Dew Point: 51°   Wind: 14mph
Humidity: 45%   Direction: 180°S
Pressure: 30.03"   Gusts: NA
Location:  38.02°N, 97.67°W
Report Text: KHUT 222252Z 18012KT 10SM BKN090 OVC110 23/11 A3003 RMK AO2 SLP153 T02330106
Loading
Personal Weather Stations






























Interactive Weather Map New forecast layout! Learn more

10-Day Weather Forecast

Advertisements
Track Severe Weather on mobile